sensor_id;sensor_type;location;lat;lon;timestamp;temperature;humidity
52879;DHT22;38747;53.140;6.498;2022-08-19T00:00:15;15.20;99.90
52879;DHT22;38747;53.140;6.498;2022-08-19T00:02:42;15.30;99.90
52879;DHT22;38747;53.140;6.498;2022-08-19T00:05:09;15.30;99.90
52879;DHT22;38747;53.140;6.498;2022-08-19T00:07:36;15.20;99.90
52879;DHT22;38747;53.140;6.498;2022-08-19T00:10:04;15.20;99.90
52879;DHT22;38747;53.140;6.498;2022-08-19T00:12:29;15.20;99.90
52879;DHT22;38747;53.140;6.498;2022-08-19T00:14:55;15.20;99.90
52879;DHT22;38747;53.140;6.498;2022-08-19T00:17:21;15.10;99.90
52879;DHT22;38747;53.140;6.498;2022-08-19T00:19:46;15.10;99.90
52879;DHT22;38747;53.140;6.498;2022-08-19T00:22:12;15.10;99.90
52879;DHT22;38747;53.140;6.498;2022-08-19T00:24:38;15.10;99.90
52879;DHT22;38747;53.140;6.498;2022-08-19T00:27:04;15.10;99.90
52879;DHT22;38747;53.140;6.498;2022-08-19T00:29:31;15.10;99.90
52879;DHT22;38747;53.140;6.498;2022-08-19T00:31:56;15.20;99.90
52879;DHT22;38747;53.140;6.498;2022-08-19T00:34:24;15.20;99.90
52879;DHT22;38747;53.140;6.498;2022-08-19T00:36:51;15.20;99.90
52879;DHT22;38747;53.140;6.498;2022-08-19T00:39:17;15.20;99.90
52879;DHT22;38747;53.140;6.498;2022-08-19T00:41:43;15.20;99.90
52879;DHT22;38747;53.140;6.498;2022-08-19T00:44:16;15.20;99.90
52879;DHT22;38747;53.140;6.498;2022-08-19T00:46:44;15.10;99.90
52879;DHT22;38747;53.140;6.498;2022-08-19T00:49:15;15.10;99.90
52879;DHT22;38747;53.140;6.498;2022-08-19T00:51:42;15.10;99.90
52879;DHT22;38747;53.140;6.498;2022-08-19T00:54:09;15.10;99.90
52879;DHT22;38747;53.140;6.498;2022-08-19T00:56:35;15.10;99.90
52879;DHT22;38747;53.140;6.498;2022-08-19T00:59:02;15.00;99.90
52879;DHT22;38747;53.140;6.498;2022-08-19T01:01:28;15.00;99.90
52879;DHT22;38747;53.140;6.498;2022-08-19T01:03:54;14.90;99.90
52879;DHT22;38747;53.140;6.498;2022-08-19T01:06:20;14.90;99.90
52879;DHT22;38747;53.140;6.498;2022-08-19T01:08:45;14.90;99.90
52879;DHT22;38747;53.140;6.498;2022-08-19T01:11:11;14.90;99.90
52879;DHT22;38747;53.140;6.498;2022-08-19T01:13:37;14.80;99.90
52879;DHT22;38747;53.140;6.498;2022-08-19T01:16:04;14.80;99.90
52879;DHT22;38747;53.140;6.498;2022-08-19T01:18:30;14.80;99.90
52879;DHT22;38747;53.140;6.498;2022-08-19T01:21:01;14.70;99.90
52879;DHT22;38747;53.140;6.498;2022-08-19T01:23:27;14.70;99.90
52879;DHT22;38747;53.140;6.498;2022-08-19T01:26:13;14.70;99.90
52879;DHT22;38747;53.140;6.498;2022-08-19T01:28:41;14.60;99.90
52879;DHT22;38747;53.140;6.498;2022-08-19T01:31:15;14.60;99.90
52879;DHT22;38747;53.140;6.498;2022-08-19T01:33:41;14.60;99.90
52879;DHT22;38747;53.140;6.498;2022-08-19T01:36:24;14.60;99.90
52879;DHT22;38747;53.140;6.498;2022-08-19T01:38:51;14.50;99.90
52879;DHT22;38747;53.140;6.498;2022-08-19T01:41:18;14.50;99.90
52879;DHT22;38747;53.140;6.498;2022-08-19T01:43:44;14.40;99.90
52879;DHT22;38747;53.140;6.498;2022-08-19T01:46:10;14.40;99.90
52879;DHT22;38747;53.140;6.498;2022-08-19T01:48:38;14.40;99.90
52879;DHT22;38747;53.140;6.498;2022-08-19T01:51:04;14.40;99.90
52879;DHT22;38747;53.140;6.498;2022-08-19T01:53:30;14.40;99.90
52879;DHT22;38747;53.140;6.498;2022-08-19T01:55:55;14.40;99.90
52879;DHT22;38747;53.140;6.498;2022-08-19T01:58:25;14.30;99.90
52879;DHT22;38747;53.140;6.498;2022-08-19T02:00:52;14.30;99.90
52879;DHT22;38747;53.140;6.498;2022-08-19T02:03:18;14.30;99.90
52879;DHT22;38747;53.140;6.498;2022-08-19T02:05:44;14.30;99.90
52879;DHT22;38747;53.140;6.498;2022-08-19T02:08:11;14.30;99.90
52879;DHT22;38747;53.140;6.498;2022-08-19T02:10:41;14.20;99.90
52879;DHT22;38747;53.140;6.498;2022-08-19T02:13:07;14.20;99.90
52879;DHT22;38747;53.140;6.498;2022-08-19T02:15:32;14.20;99.90
52879;DHT22;38747;53.140;6.498;2022-08-19T02:17:58;14.10;99.90
52879;DHT22;38747;53.140;6.498;2022-08-19T02:20:24;14.20;99.90
52879;DHT22;38747;53.140;6.498;2022-08-19T02:22:49;14.20;99.90
52879;DHT22;38747;53.140;6.498;2022-08-19T02:25:15;14.20;99.90
52879;DHT22;38747;53.140;6.498;2022-08-19T02:27:41;14.20;99.90
52879;DHT22;38747;53.140;6.498;2022-08-19T02:30:11;14.20;99.90
52879;DHT22;38747;53.140;6.498;2022-08-19T02:32:37;14.20;99.90
52879;DHT22;38747;53.140;6.498;2022-08-19T02:35:03;14.10;99.90
52879;DHT22;38747;53.140;6.498;2022-08-19T02:37:28;14.10;99.90
52879;DHT22;38747;53.140;6.498;2022-08-19T02:40:13;14.10;99.90
52879;DHT22;38747;53.140;6.498;2022-08-19T02:42:38;14.00;99.90
52879;DHT22;38747;53.140;6.498;2022-08-19T02:45:06;14.00;99.90
52879;DHT22;38747;53.140;6.498;2022-08-19T02:47:32;14.00;99.90
52879;DHT22;38747;53.140;6.498;2022-08-19T02:49:58;14.00;99.90
52879;DHT22;38747;53.140;6.498;2022-08-19T02:52:25;14.00;99.90
52879;DHT22;38747;53.140;6.498;2022-08-19T02:54:52;14.00;99.90
52879;DHT22;38747;53.140;6.498;2022-08-19T02:57:18;13.90;99.90
52879;DHT22;38747;53.140;6.498;2022-08-19T02:59:43;13.90;99.90
52879;DHT22;38747;53.140;6.498;2022-08-19T03:02:09;13.90;99.90
52879;DHT22;38747;53.140;6.498;2022-08-19T03:04:34;13.90;99.90
52879;DHT22;38747;53.140;6.498;2022-08-19T03:07:00;13.90;99.90
52879;DHT22;38747;53.140;6.498;2022-08-19T03:09:25;13.80;99.90
52879;DHT22;38747;53.140;6.498;2022-08-19T03:11:51;13.80;99.90
52879;DHT22;38747;53.140;6.498;2022-08-19T03:14:17;13.80;99.90
52879;DHT22;38747;53.140;6.498;2022-08-19T03:16:49;13.80;99.90
52879;DHT22;38747;53.140;6.498;2022-08-19T03:19:16;13.80;99.90
52879;DHT22;38747;53.140;6.498;2022-08-19T03:21:43;13.80;99.90
52879;DHT22;38747;53.140;6.498;2022-08-19T03:24:10;13.80;99.90
52879;DHT22;38747;53.140;6.498;2022-08-19T03:26:42;13.80;99.90
52879;DHT22;38747;53.140;6.498;2022-08-19T03:29:09;13.80;99.90
52879;DHT22;38747;53.140;6.498;2022-08-19T03:31:37;13.80;99.90
52879;DHT22;38747;53.140;6.498;2022-08-19T03:34:03;13.80;99.90
52879;DHT22;38747;53.140;6.498;2022-08-19T03:36:29;13.80;99.90
52879;DHT22;38747;53.140;6.498;2022-08-19T03:38:59;13.80;99.90
52879;DHT22;38747;53.140;6.498;2022-08-19T03:41:29;13.80;99.90
52879;DHT22;38747;53.140;6.498;2022-08-19T03:43:59;13.80;99.90
52879;DHT22;38747;53.140;6.498;2022-08-19T03:46:25;13.70;99.90
52879;DHT22;38747;53.140;6.498;2022-08-19T03:48:52;13.70;99.90
52879;DHT22;38747;53.140;6.498;2022-08-19T03:51:26;13.70;99.90
52879;DHT22;38747;53.140;6.498;2022-08-19T03:53:54;13.70;99.90
52879;DHT22;38747;53.140;6.498;2022-08-19T03:56:20;13.70;99.90
52879;DHT22;38747;53.140;6.498;2022-08-19T03:58:46;13.70;99.90
52879;DHT22;38747;53.140;6.498;2022-08-19T04:01:15;13.70;99.90
52879;DHT22;38747;53.140;6.498;2022-08-19T04:03:41;13.70;99.90
52879;DHT22;38747;53.140;6.498;2022-08-19T04:06:33;13.60;99.90
52879;DHT22;38747;53.140;6.498;2022-08-19T04:09:01;13.60;99.90
52879;DHT22;38747;53.140;6.498;2022-08-19T04:11:31;13.60;99.90
52879;DHT22;38747;53.140;6.498;2022-08-19T04:13:57;13.70;99.90
52879;DHT22;38747;53.140;6.498;2022-08-19T04:16:25;13.70;99.90
52879;DHT22;38747;53.140;6.498;2022-08-19T04:18:53;13.70;99.90
52879;DHT22;38747;53.140;6.498;2022-08-19T04:21:20;13.70;99.90
52879;DHT22;38747;53.140;6.498;2022-08-19T04:23:47;13.60;99.90
52879;DHT22;38747;53.140;6.498;2022-08-19T04:26:19;13.50;99.90
52879;DHT22;38747;53.140;6.498;2022-08-19T04:28:45;13.50;99.90
52879;DHT22;38747;53.140;6.498;2022-08-19T04:31:25;13.40;99.90
52879;DHT22;38747;53.140;6.498;2022-08-19T04:33:54;13.40;99.90
52879;DHT22;38747;53.140;6.498;2022-08-19T04:36:28;13.40;99.90
52879;DHT22;38747;53.140;6.498;2022-08-19T04:39:00;13.40;99.90
52879;DHT22;38747;53.140;6.498;2022-08-19T04:41:26;13.50;99.90
52879;DHT22;38747;53.140;6.498;2022-08-19T04:44:11;13.50;99.90
52879;DHT22;38747;53.140;6.498;2022-08-19T04:46:38;13.50;99.90
52879;DHT22;38747;53.140;6.498;2022-08-19T04:49:05;13.50;99.90
52879;DHT22;38747;53.140;6.498;2022-08-19T04:51:32;13.50;99.90
52879;DHT22;38747;53.140;6.498;2022-08-19T04:53:59;13.50;99.90
52879;DHT22;38747;53.140;6.498;2022-08-19T04:56:26;13.50;99.90
52879;DHT22;38747;53.140;6.498;2022-08-19T04:58:53;13.60;99.90
52879;DHT22;38747;53.140;6.498;2022-08-19T05:01:26;13.60;99.90
52879;DHT22;38747;53.140;6.498;2022-08-19T05:03:52;13.60;99.90
52879;DHT22;38747;53.140;6.498;2022-08-19T05:06:20;13.60;99.90
52879;DHT22;38747;53.140;6.498;2022-08-19T05:08:46;13.60;99.90
52879;DHT22;38747;53.140;6.498;2022-08-19T05:13:38;13.50;99.90
52879;DHT22;38747;53.140;6.498;2022-08-19T05:16:03;13.50;99.90
52879;DHT22;38747;53.140;6.498;2022-08-19T05:18:29;13.50;99.90
52879;DHT22;38747;53.140;6.498;2022-08-19T05:21:17;13.50;99.90
52879;DHT22;38747;53.140;6.498;2022-08-19T05:24:03;13.60;99.90
52879;DHT22;38747;53.140;6.498;2022-08-19T05:26:32;13.70;99.90
52879;DHT22;38747;53.140;6.498;2022-08-19T05:28:57;13.70;99.90
52879;DHT22;38747;53.140;6.498;2022-08-19T05:31:23;13.80;99.90
52879;DHT22;38747;53.140;6.498;2022-08-19T05:33:48;14.00;99.90
52879;DHT22;38747;53.140;6.498;2022-08-19T05:36:15;14.10;99.90
52879;DHT22;38747;53.140;6.498;2022-08-19T05:38:40;14.10;99.90
52879;DHT22;38747;53.140;6.498;2022-08-19T05:41:07;14.20;99.90
52879;DHT22;38747;53.140;6.498;2022-08-19T05:43:33;14.20;99.90
52879;DHT22;38747;53.140;6.498;2022-08-19T05:45:59;14.30;99.90
52879;DHT22;38747;53.140;6.498;2022-08-19T05:48:25;14.40;99.90
52879;DHT22;38747;53.140;6.498;2022-08-19T05:50:51;14.50;99.90
52879;DHT22;38747;53.140;6.498;2022-08-19T05:53:17;14.60;99.90
52879;DHT22;38747;53.140;6.498;2022-08-19T05:55:43;14.70;99.90
52879;DHT22;38747;53.140;6.498;2022-08-19T05:58:09;14.80;99.90
52879;DHT22;38747;53.140;6.498;2022-08-19T06:00:35;14.90;99.90
52879;DHT22;38747;53.140;6.498;2022-08-19T06:03:01;15.00;99.90
52879;DHT22;38747;53.140;6.498;2022-08-19T06:05:29;15.10;99.90
52879;DHT22;38747;53.140;6.498;2022-08-19T06:07:55;15.20;99.90
52879;DHT22;38747;53.140;6.498;2022-08-19T06:10:21;15.30;99.90
52879;DHT22;38747;53.140;6.498;2022-08-19T06:12:47;15.40;99.90
52879;DHT22;38747;53.140;6.498;2022-08-19T06:15:14;15.50;99.90
52879;DHT22;38747;53.140;6.498;2022-08-19T06:17:40;15.50;99.90
52879;DHT22;38747;53.140;6.498;2022-08-19T06:20:09;15.60;99.90
52879;DHT22;38747;53.140;6.498;2022-08-19T06:22:43;16.20;99.90
52879;DHT22;38747;53.140;6.498;2022-08-19T06:25:10;17.00;99.90
52879;DHT22;38747;53.140;6.498;2022-08-19T06:27:36;17.20;99.90
52879;DHT22;38747;53.140;6.498;2022-08-19T06:30:02;17.20;99.90
52879;DHT22;38747;53.140;6.498;2022-08-19T06:32:29;17.00;99.90
52879;DHT22;38747;53.140;6.498;2022-08-19T06:34:54;16.90;99.90
52879;DHT22;38747;53.140;6.498;2022-08-19T06:37:20;16.90;99.90
52879;DHT22;38747;53.140;6.498;2022-08-19T06:39:47;16.90;99.90
52879;DHT22;38747;53.140;6.498;2022-08-19T06:42:13;16.90;99.90
52879;DHT22;38747;53.140;6.498;2022-08-19T06:44:43;17.20;99.90
52879;DHT22;38747;53.140;6.498;2022-08-19T06:47:12;17.50;99.90
52879;DHT22;38747;53.140;6.498;2022-08-19T06:49:38;17.50;99.90
52879;DHT22;38747;53.140;6.498;2022-08-19T06:52:04;17.40;99.90
52879;DHT22;38747;53.140;6.498;2022-08-19T06:54:30;17.40;99.90
52879;DHT22;38747;53.140;6.498;2022-08-19T06:56:59;17.40;99.90
52879;DHT22;38747;53.140;6.498;2022-08-19T06:59:28;17.40;99.90
52879;DHT22;38747;53.140;6.498;2022-08-19T07:01:56;17.40;99.90
52879;DHT22;38747;53.140;6.498;2022-08-19T07:04:24;17.50;99.90
52879;DHT22;38747;53.140;6.498;2022-08-19T07:06:55;17.50;99.90
52879;DHT22;38747;53.140;6.498;2022-08-19T07:09:22;17.60;99.90
52879;DHT22;38747;53.140;6.498;2022-08-19T07:11:48;17.60;99.90
52879;DHT22;38747;53.140;6.498;2022-08-19T07:14:16;17.70;99.90
52879;DHT22;38747;53.140;6.498;2022-08-19T07:16:44;17.80;99.90
52879;DHT22;38747;53.140;6.498;2022-08-19T07:19:11;17.90;99.90
52879;DHT22;38747;53.140;6.498;2022-08-19T07:21:37;17.90;99.90
52879;DHT22;38747;53.140;6.498;2022-08-19T07:24:02;18.00;99.90
52879;DHT22;38747;53.140;6.498;2022-08-19T07:26:31;18.10;99.90
52879;DHT22;38747;53.140;6.498;2022-08-19T07:28:58;18.10;99.90
52879;DHT22;38747;53.140;6.498;2022-08-19T07:31:25;18.20;99.90
52879;DHT22;38747;53.140;6.498;2022-08-19T07:33:53;18.30;99.90
52879;DHT22;38747;53.140;6.498;2022-08-19T07:36:23;18.40;99.90
52879;DHT22;38747;53.140;6.498;2022-08-19T07:38:50;18.40;99.90
52879;DHT22;38747;53.140;6.498;2022-08-19T07:41:20;18.50;99.90
52879;DHT22;38747;53.140;6.498;2022-08-19T07:43:47;18.50;99.90
52879;DHT22;38747;53.140;6.498;2022-08-19T07:46:13;18.60;99.90
52879;DHT22;38747;53.140;6.498;2022-08-19T07:48:41;18.70;99.90
52879;DHT22;38747;53.140;6.498;2022-08-19T07:51:08;18.80;99.90
52879;DHT22;38747;53.140;6.498;2022-08-19T07:53:36;18.80;99.90
52879;DHT22;38747;53.140;6.498;2022-08-19T07:56:03;18.90;99.90
52879;DHT22;38747;53.140;6.498;2022-08-19T07:58:39;19.00;99.90
52879;DHT22;38747;53.140;6.498;2022-08-19T08:01:07;19.00;99.90
52879;DHT22;38747;53.140;6.498;2022-08-19T08:03:33;19.10;99.90
52879;DHT22;38747;53.140;6.498;2022-08-19T08:06:17;19.20;99.90
52879;DHT22;38747;53.140;6.498;2022-08-19T08:09:03;19.30;99.90
52879;DHT22;38747;53.140;6.498;2022-08-19T08:11:47;19.40;99.90
52879;DHT22;38747;53.140;6.498;2022-08-19T08:14:17;19.50;99.90
52879;DHT22;38747;53.140;6.498;2022-08-19T08:16:43;19.60;99.90
52879;DHT22;38747;53.140;6.498;2022-08-19T08:19:11;19.70;99.90
52879;DHT22;38747;53.140;6.498;2022-08-19T08:21:37;19.70;99.90
52879;DHT22;38747;53.140;6.498;2022-08-19T08:24:02;19.80;99.90
52879;DHT22;38747;53.140;6.498;2022-08-19T08:26:28;19.80;99.90
52879;DHT22;38747;53.140;6.498;2022-08-19T08:28:53;19.90;99.90
52879;DHT22;38747;53.140;6.498;2022-08-19T08:31:19;20.00;99.90
52879;DHT22;38747;53.140;6.498;2022-08-19T08:33:45;20.10;99.90
52879;DHT22;38747;53.140;6.498;2022-08-19T08:36:12;20.20;99.90
52879;DHT22;38747;53.140;6.498;2022-08-19T08:38:40;20.20;99.90
52879;DHT22;38747;53.140;6.498;2022-08-19T08:41:33;20.40;99.90
52879;DHT22;38747;53.140;6.498;2022-08-19T08:44:00;20.50;99.90
52879;DHT22;38747;53.140;6.498;2022-08-19T08:47:11;20.50;99.90
52879;DHT22;38747;53.140;6.498;2022-08-19T08:49:50;20.70;99.90
52879;DHT22;38747;53.140;6.498;2022-08-19T08:52:25;20.80;99.90
52879;DHT22;38747;53.140;6.498;2022-08-19T08:54:55;20.90;99.90
52879;DHT22;38747;53.140;6.498;2022-08-19T08:57:29;21.00;99.90
52879;DHT22;38747;53.140;6.498;2022-08-19T09:00:04;21.20;99.90
52879;DHT22;38747;53.140;6.498;2022-08-19T09:02:31;21.30;99.90
52879;DHT22;38747;53.140;6.498;2022-08-19T09:04:56;21.40;99.90
52879;DHT22;38747;53.140;6.498;2022-08-19T09:07:41;21.70;99.90
52879;DHT22;38747;53.140;6.498;2022-08-19T09:16:07;22.10;99.90
52879;DHT22;38747;53.140;6.498;2022-08-19T09:18:55;22.30;99.90
52879;DHT22;38747;53.140;6.498;2022-08-19T09:21:24;22.40;99.90
52879;DHT22;38747;53.140;6.498;2022-08-19T09:23:50;22.50;99.90
52879;DHT22;38747;53.140;6.498;2022-08-19T09:26:19;22.60;99.90
52879;DHT22;38747;53.140;6.498;2022-08-19T09:28:48;22.70;99.90
52879;DHT22;38747;53.140;6.498;2022-08-19T09:31:16;22.90;99.90
52879;DHT22;38747;53.140;6.498;2022-08-19T09:33:41;23.00;99.90
52879;DHT22;38747;53.140;6.498;2022-08-19T09:36:12;23.20;99.90
52879;DHT22;38747;53.140;6.498;2022-08-19T09:38:38;23.30;99.90
52879;DHT22;38747;53.140;6.498;2022-08-19T09:41:10;23.50;99.90
52879;DHT22;38747;53.140;6.498;2022-08-19T09:43:38;23.60;99.90
52879;DHT22;38747;53.140;6.498;2022-08-19T09:46:05;23.80;99.90
52879;DHT22;38747;53.140;6.498;2022-08-19T09:48:40;23.90;99.90
52879;DHT22;38747;53.140;6.498;2022-08-19T09:51:09;23.90;99.90
52879;DHT22;38747;53.140;6.498;2022-08-19T09:53:37;24.10;99.90
52879;DHT22;38747;53.140;6.498;2022-08-19T09:56:04;24.20;99.90
52879;DHT22;38747;53.140;6.498;2022-08-19T09:58:31;24.30;99.90
52879;DHT22;38747;53.140;6.498;2022-08-19T10:00:58;24.40;99.90
52879;DHT22;38747;53.140;6.498;2022-08-19T10:03:25;24.50;99.90
52879;DHT22;38747;53.140;6.498;2022-08-19T10:05:51;24.60;99.90
52879;DHT22;38747;53.140;6.498;2022-08-19T10:08:25;24.70;99.90
52879;DHT22;38747;53.140;6.498;2022-08-19T10:10:52;24.80;99.90
52879;DHT22;38747;53.140;6.498;2022-08-19T10:13:23;24.90;99.90
52879;DHT22;38747;53.140;6.498;2022-08-19T10:15:51;25.00;99.90
52879;DHT22;38747;53.140;6.498;2022-08-19T10:18:19;25.00;99.90
52879;DHT22;38747;53.140;6.498;2022-08-19T10:20:47;25.10;99.90
52879;DHT22;38747;53.140;6.498;2022-08-19T10:23:13;25.10;99.90
52879;DHT22;38747;53.140;6.498;2022-08-19T10:25:39;25.10;99.90
52879;DHT22;38747;53.140;6.498;2022-08-19T10:28:05;25.20;99.90
52879;DHT22;38747;53.140;6.498;2022-08-19T10:30:33;25.40;99.90
52879;DHT22;38747;53.140;6.498;2022-08-19T10:32:58;25.50;99.90
52879;DHT22;38747;53.140;6.498;2022-08-19T10:35:24;25.60;99.90
52879;DHT22;38747;53.140;6.498;2022-08-19T10:37:55;25.70;99.90
52879;DHT22;38747;53.140;6.498;2022-08-19T10:40:25;25.70;99.90
52879;DHT22;38747;53.140;6.498;2022-08-19T10:42:50;25.90;99.90
52879;DHT22;38747;53.140;6.498;2022-08-19T10:45:16;25.90;99.90
52879;DHT22;38747;53.140;6.498;2022-08-19T10:47:42;26.00;99.90
52879;DHT22;38747;53.140;6.498;2022-08-19T10:50:08;26.10;99.90
52879;DHT22;38747;53.140;6.498;2022-08-19T10:52:52;26.30;99.90
52879;DHT22;38747;53.140;6.498;2022-08-19T10:55:22;26.30;99.90
52879;DHT22;38747;53.140;6.498;2022-08-19T10:58:19;26.50;99.90
52879;DHT22;38747;53.140;6.498;2022-08-19T11:01:00;26.60;99.90
52879;DHT22;38747;53.140;6.498;2022-08-19T11:03:26;26.70;99.90
52879;DHT22;38747;53.140;6.498;2022-08-19T11:06:07;26.70;99.90
52879;DHT22;38747;53.140;6.498;2022-08-19T11:08:34;26.80;99.90
52879;DHT22;38747;53.140;6.498;2022-08-19T11:11:01;26.80;99.90
52879;DHT22;38747;53.140;6.498;2022-08-19T11:13:29;26.90;99.90
52879;DHT22;38747;53.140;6.498;2022-08-19T11:16:10;27.10;99.90
52879;DHT22;38747;53.140;6.498;2022-08-19T11:18:42;27.20;99.90
52879;DHT22;38747;53.140;6.498;2022-08-19T11:21:18;27.30;99.90
52879;DHT22;38747;53.140;6.498;2022-08-19T11:23:47;27.30;99.90
52879;DHT22;38747;53.140;6.498;2022-08-19T11:26:13;27.20;99.90
52879;DHT22;38747;53.140;6.498;2022-08-19T11:28:40;27.30;99.90
52879;DHT22;38747;53.140;6.498;2022-08-19T11:31:14;27.40;99.90
52879;DHT22;38747;53.140;6.498;2022-08-19T11:33:40;27.50;99.90
52879;DHT22;38747;53.140;6.498;2022-08-19T11:36:06;27.60;99.90
52879;DHT22;38747;53.140;6.498;2022-08-19T11:38:33;27.70;99.90
52879;DHT22;38747;53.140;6.498;2022-08-19T11:41:04;28.00;99.90
52879;DHT22;38747;53.140;6.498;2022-08-19T11:43:29;28.00;99.90
52879;DHT22;38747;53.140;6.498;2022-08-19T11:45:56;27.90;99.90
52879;DHT22;38747;53.140;6.498;2022-08-19T11:48:23;27.80;99.90
52879;DHT22;38747;53.140;6.498;2022-08-19T11:50:53;27.80;99.90
52879;DHT22;38747;53.140;6.498;2022-08-19T11:53:22;27.70;99.90
52879;DHT22;38747;53.140;6.498;2022-08-19T11:55:48;27.50;99.90
52879;DHT22;38747;53.140;6.498;2022-08-19T11:58:15;27.30;99.90
52879;DHT22;38747;53.140;6.498;2022-08-19T12:00:41;27.20;99.90
52879;DHT22;38747;53.140;6.498;2022-08-19T12:03:08;27.10;99.90
52879;DHT22;38747;53.140;6.498;2022-08-19T12:05:36;26.90;99.90
52879;DHT22;38747;53.140;6.498;2022-08-19T12:08:02;26.80;99.90
52879;DHT22;38747;53.140;6.498;2022-08-19T12:10:27;26.70;99.90
52879;DHT22;38747;53.140;6.498;2022-08-19T12:12:53;26.60;99.90
52879;DHT22;38747;53.140;6.498;2022-08-19T12:15:19;26.60;99.90
52879;DHT22;38747;53.140;6.498;2022-08-19T12:17:44;26.50;99.90
52879;DHT22;38747;53.140;6.498;2022-08-19T12:20:11;26.40;99.90
52879;DHT22;38747;53.140;6.498;2022-08-19T12:22:39;26.40;99.90
52879;DHT22;38747;53.140;6.498;2022-08-19T12:25:08;26.30;99.90
52879;DHT22;38747;53.140;6.498;2022-08-19T12:27:34;26.30;99.90
52879;DHT22;38747;53.140;6.498;2022-08-19T12:30:01;26.40;99.90
52879;DHT22;38747;53.140;6.498;2022-08-19T12:32:27;26.60;99.90
52879;DHT22;38747;53.140;6.498;2022-08-19T12:34:53;26.80;99.90
52879;DHT22;38747;53.140;6.498;2022-08-19T12:37:19;26.90;99.90
52879;DHT22;38747;53.140;6.498;2022-08-19T12:39:44;26.80;99.90
52879;DHT22;38747;53.140;6.498;2022-08-19T12:42:11;26.80;99.90
52879;DHT22;38747;53.140;6.498;2022-08-19T12:44:39;26.80;99.90
52879;DHT22;38747;53.140;6.498;2022-08-19T12:47:05;26.70;99.90
52879;DHT22;38747;53.140;6.498;2022-08-19T12:49:32;26.70;99.90
52879;DHT22;38747;53.140;6.498;2022-08-19T12:52:00;26.80;99.90
52879;DHT22;38747;53.140;6.498;2022-08-19T12:54:27;26.80;99.90
52879;DHT22;38747;53.140;6.498;2022-08-19T12:56:52;26.90;99.90
52879;DHT22;38747;53.140;6.498;2022-08-19T12:59:18;26.90;99.90
52879;DHT22;38747;53.140;6.498;2022-08-19T13:01:45;26.80;99.90
52879;DHT22;38747;53.140;6.498;2022-08-19T13:04:10;26.80;99.90
52879;DHT22;38747;53.140;6.498;2022-08-19T13:06:37;26.70;99.90
52879;DHT22;38747;53.140;6.498;2022-08-19T13:09:04;26.80;99.90
52879;DHT22;38747;53.140;6.498;2022-08-19T13:11:30;26.70;99.90
52879;DHT22;38747;53.140;6.498;2022-08-19T13:14:00;26.70;99.90
52879;DHT22;38747;53.140;6.498;2022-08-19T13:16:26;26.70;99.90
52879;DHT22;38747;53.140;6.498;2022-08-19T13:18:54;26.70;99.90
52879;DHT22;38747;53.140;6.498;2022-08-19T13:21:22;26.60;99.90
52879;DHT22;38747;53.140;6.498;2022-08-19T13:23:48;26.60;99.90
52879;DHT22;38747;53.140;6.498;2022-08-19T13:26:15;26.70;99.90
52879;DHT22;38747;53.140;6.498;2022-08-19T13:28:41;26.70;99.90
52879;DHT22;38747;53.140;6.498;2022-08-19T13:31:28;26.70;99.90
52879;DHT22;38747;53.140;6.498;2022-08-19T13:34:13;26.60;99.90
52879;DHT22;38747;53.140;6.498;2022-08-19T13:36:39;26.40;99.90
52879;DHT22;38747;53.140;6.498;2022-08-19T13:39:06;26.30;99.90
52879;DHT22;38747;53.140;6.498;2022-08-19T13:41:33;26.20;99.90
52879;DHT22;38747;53.140;6.498;2022-08-19T13:43:59;26.10;99.90
52879;DHT22;38747;53.140;6.498;2022-08-19T13:46:25;26.00;99.90
52879;DHT22;38747;53.140;6.498;2022-08-19T13:48:52;25.80;99.90
52879;DHT22;38747;53.140;6.498;2022-08-19T13:51:18;25.70;99.90
52879;DHT22;38747;53.140;6.498;2022-08-19T13:53:44;25.60;99.90
52879;DHT22;38747;53.140;6.498;2022-08-19T13:56:12;25.50;99.90
52879;DHT22;38747;53.140;6.498;2022-08-19T13:58:38;25.40;99.90
52879;DHT22;38747;53.140;6.498;2022-08-19T14:01:05;25.30;99.90
52879;DHT22;38747;53.140;6.498;2022-08-19T14:03:32;25.30;99.90
52879;DHT22;38747;53.140;6.498;2022-08-19T14:05:58;25.10;99.90
52879;DHT22;38747;53.140;6.498;2022-08-19T14:08:25;25.10;99.90
52879;DHT22;38747;53.140;6.498;2022-08-19T14:10:56;25.00;99.90
52879;DHT22;38747;53.140;6.498;2022-08-19T14:13:22;25.00;99.90
52879;DHT22;38747;53.140;6.498;2022-08-19T14:15:48;24.90;99.90
52879;DHT22;38747;53.140;6.498;2022-08-19T14:18:16;24.80;99.90
52879;DHT22;38747;53.140;6.498;2022-08-19T14:20:42;24.80;99.90
52879;DHT22;38747;53.140;6.498;2022-08-19T14:23:07;24.80;99.90
52879;DHT22;38747;53.140;6.498;2022-08-19T14:25:33;24.80;99.90
52879;DHT22;38747;53.140;6.498;2022-08-19T14:28:00;24.90;99.90
52879;DHT22;38747;53.140;6.498;2022-08-19T14:30:36;25.00;99.90
52879;DHT22;38747;53.140;6.498;2022-08-19T14:33:04;25.10;99.90
52879;DHT22;38747;53.140;6.498;2022-08-19T14:35:32;25.10;99.90
52879;DHT22;38747;53.140;6.498;2022-08-19T14:38:02;25.10;99.90
52879;DHT22;38747;53.140;6.498;2022-08-19T14:40:29;25.10;99.90
52879;DHT22;38747;53.140;6.498;2022-08-19T14:43:01;25.10;99.90
52879;DHT22;38747;53.140;6.498;2022-08-19T14:45:32;25.10;99.90
52879;DHT22;38747;53.140;6.498;2022-08-19T14:47:58;25.10;99.90
52879;DHT22;38747;53.140;6.498;2022-08-19T14:50:25;25.10;99.90
52879;DHT22;38747;53.140;6.498;2022-08-19T14:52:58;25.10;99.90
52879;DHT22;38747;53.140;6.498;2022-08-19T14:55:24;25.20;99.90
52879;DHT22;38747;53.140;6.498;2022-08-19T14:57:49;25.30;99.90
52879;DHT22;38747;53.140;6.498;2022-08-19T15:00:15;25.40;99.90
52879;DHT22;38747;53.140;6.498;2022-08-19T15:02:42;25.60;99.90
52879;DHT22;38747;53.140;6.498;2022-08-19T15:05:09;25.60;99.90
52879;DHT22;38747;53.140;6.498;2022-08-19T15:07:36;25.80;99.90
52879;DHT22;38747;53.140;6.498;2022-08-19T15:10:03;25.80;99.90
52879;DHT22;38747;53.140;6.498;2022-08-19T15:12:29;25.80;99.90
52879;DHT22;38747;53.140;6.498;2022-08-19T15:14:54;25.80;99.90
52879;DHT22;38747;53.140;6.498;2022-08-19T15:17:20;25.80;99.90
52879;DHT22;38747;53.140;6.498;2022-08-19T15:19:46;25.80;99.90
52879;DHT22;38747;53.140;6.498;2022-08-19T15:22:11;25.80;99.90
52879;DHT22;38747;53.140;6.498;2022-08-19T15:24:38;25.90;99.90
52879;DHT22;38747;53.140;6.498;2022-08-19T15:27:04;25.90;99.90
52879;DHT22;38747;53.140;6.498;2022-08-19T15:29:30;25.90;99.90
52879;DHT22;38747;53.140;6.498;2022-08-19T15:31:57;25.90;99.90
52879;DHT22;38747;53.140;6.498;2022-08-19T15:34:24;25.90;99.90
52879;DHT22;38747;53.140;6.498;2022-08-19T15:36:51;25.80;99.90
52879;DHT22;38747;53.140;6.498;2022-08-19T15:39:18;25.70;99.90
52879;DHT22;38747;53.140;6.498;2022-08-19T15:41:44;25.60;99.90
52879;DHT22;38747;53.140;6.498;2022-08-19T15:44:13;25.60;99.90